Aérodrome :







RETROUVEZ-NOUS SUR...

 
LOGIN :

S'inscrire | Disclaimer

   EN    FR    IT 

 









Légende :    VFR   VFR Marginal   IFR   IFR Intensif   IFR Très Intensif
Visi : 
Plafond : 
>= 8 km
>= 3000ft
5 à 8 km
1000 à 3000 ft
1500m à 5 km
500 à 1000 ft
800 à 1500m
200 à 500 ft
< 800m
< 200 ft
Symboles :   Orages  Brouillard  Fortes neiges  Fortes précipitations  Vent > 20 kt






- Altitude de l'aérodrome : 84 ft
- Code IATA : YJT


CYJT - Stephenville

DERNIER METAR :
  • 190500Z 06007KT 15SM SCT110 BKN240 M10/M16 A3033 RMK AC4CI3 SLP274

METARs EXPIRÉS :
  • 190400Z 07012KT 15SM BKN100 M11/M16 A3035 RMK AC6 PRESFR SLP282
  • 190300Z 06011KT 15SM BKN130 M12/M16 A3038 RMK AC6 PRESFR SLP292

TAF TAF CYJT
Valide du 19 à 00h jusqu'au 20 à 00h UTC


182338Z 1900/1924 VRB03KT P6SM SCT030
BECMG 1901/1903 15010KT
FM190600 16010G20KT P6SM OVC080
FM190900 16015G25KT 11/2SM -SN OVC015
FM191300 16015G25KT 3SM -RASN BR OVC012
PROB30 1913/1916 2SM -SNPL
BECMG 1916/1918 25015G25KT
FM191800 25015G25KT 1SM -SHSN OVC006
PROB30 1918/1924 2SM -FZDZ BR RMK NXT FCST BY 190600Z



MET'MAP, la Météo Aéronautique d'un coup d'oeil ! - Copyright ORBIFLY Décembre 2007 - Disclaimer

ORBIFLY MET'MAP TEAM :

Programmation & Développement : Alexandra Zaïnal
Sur une idée originale de : Baudouin d'Aumeries
Assistance à la programmation : Marc-Olivier Méhu
Soutien technique & logistique : Manuel Goepfert

Contact : metmap@orbifly.com




SOURCES & CREDITS :

   NOAA